AirNav   Everest Fuels
 
 1131 users online  

UT14 Brigham City Community Hospital Heliport
Brigham City, Utah, USA

GOING TO BRIGHAM CITY?


FAA INFORMATION EFFECTIVE 30 JANUARY 2020

Location

FAA Identifier: UT14
Lat/Long: 41-29-31.0700N 112-01-35.1100W
41-29.517833N 112-01.585167W
41.4919639,-112.0264194
(estimated)
Elevation: 4308 ft. / 1313 m (estimated)
Variation: 15E (1990)
Time zone: UTC -7 (UTC -6 during Daylight Saving Time)
Zip code: 84302

Heliport Operations

Heliport use: Private use, MEDICAL USE.
Activation date: 12/1992
Control tower: no
ARTCC: SALT LAKE CITY CENTER
FSS: CEDAR CITY FLIGHT SERVICE STATION
Attendance: UNATNDD
Segmented circle: no

Heliport Communications

WX AWOS-3 at BMC (4 nm NW): 135.075 (435-723-3852)
WX ASOS at OGD (18 nm S): PHONE 801-622-5600
WX ASOS at LGU (20 nm NE): 135.275 (435-752-6941)

Nearby radio navigation aids

VOR radial/distance  VOR name  Freq  Var
OGDr357/16.4OGDEN VORTAC115.7014E
LHOr168/18.1BRIGHAM CITY VOR/DME112.9014E
TCHr341/38.6WASATCH VORTAC116.8016E

Heliport Services

Runway Information

Helipad H1

Dimensions: 60 x 60 ft. / 18 x 18 m
Surface: concrete
Latitude: 41-29.517833N
Longitude: 112-01.585167W
Elevation: 4308.0 ft.
Traffic pattern: leftleft

Heliport Ownership and Management from official FAA records

Ownership: Privately-owned
Owner: BRIGHAM CITY COMMUNITY HOSP
950 SOUTH 500 WEST
BRIGHAM CITY, UT 84302
Phone 435-734-9471
Manager: RICHARD SPUHLER, CEO
950 SOUTH 500 WEST
BRIGHAM CITY, UT 84302
Phone 435-734-9471

Additional Remarks

A52-H1 24 FT POLE 111 FT SOUTH; 70 FT ANT 300 FT SE; 18 FT BLDG 141 FT SW; 14 FT BLDG 141 FT EAST OF HELIPAD.
FOR CD CTC SALT LAKE CITY APCH AT 801-325-9670.

Instrument Procedures

There are no published instrument procedures at UT14.

Some nearby airports with instrument procedures:

KBMC - Brigham City Regional Airport (4 nm NW)
KOGD - Ogden-Hinckley Airport (18 nm S)
KLGU - Logan-Cache Airport (20 nm NE)
KHIF - Hill Air Force Base (22 nm S)
KSLC - Salt Lake City International Airport (42 nm S)
 
Loc | Ops | Rwys | IFR | FBO | Links
Com | Nav | Svcs | Stats | Notes
Area around UT14 (Brigham City Community Hospital Heliport)
 
Road maps at: MapQuest Bing Google
 
Aerial photo
No photo
 
Sectional chart

 
Airport distance calculator
Flying to Brigham City Community Hospital Heliport? Find the distance to fly.

From to UT14

Sunrise and sunset
Times for 17-Feb-2020
 Local
(UTC-7)
 Zulu
(UTC)
Morning civil twilight06:5313:53
Sunrise07:2114:21
Sunset18:0301:03
Evening civil twilight18:3101:31

Current date and time
Zulu (UTC)  17-Feb-2020 22:43:33
Local (UTC-7)  17-Feb-2020 15:43:33
 
METAR
KBMC 
4nm NW 
172210Z AUTO 34003KT 10SM SCT120 02/M11 A3012 RMK AO1 T00211113
KOGD 
18nm S 
172153Z 30007KT 10SM BKN090 04/M11 A3008 RMK AO2 SLP188 T00391106
KLGU 
19nm NE 
172151Z AUTO 36004KT 10SM CLR 02/M11 A3011 RMK AO2 SLP204 T00221111
TAF
KOGD 
18nm S 
172214Z 1722/1818 33007KT P6SM SCT040 BKN080 FM180400 VRB04KT P6SM SCT060 SCT120
KLGU 
19nm NE 
171720Z 1718/1818 VRB04KT P6SM SCT060 SCT120 FM172100 33007KT P6SM VCSH SCT030 BKN060 FM180300 VRB04KT P6SM SCT060 SCT120
NOTAMs
Click for the latest NOTAMs
NOTAMs are issued by the DoD/FAA and will open in a separate window not controlled by AirNav.

 

 
 

Would you like to see your business listed on this page?

 If your business provides an interesting product or service to pilots, flight crews, aircraft, or users of the Brigham City Community Hospital Heliport, you should consider listing it here.  To start the listing process, click on the button below
 
Add a business
 

Other Pages about Brigham City Community Hospital Heliport

Update a link
 
Copyright © AirNav, LLC. All rights reserved. Privacy Policy  Contact